createdAt,value
2023-10-31T00:02:27.619Z,10.75
2023-10-31T00:04:55.443Z,9.55
2023-10-31T00:07:22.887Z,10.90
2023-10-31T00:09:50.725Z,9.63
2023-10-31T00:12:18.311Z,11.40
2023-10-31T00:14:45.965Z,10.07
2023-10-31T00:17:13.286Z,10.02
2023-10-31T00:19:40.911Z,10.05
2023-10-31T00:22:08.403Z,9.77
2023-10-31T00:24:36.025Z,9.75
2023-10-31T00:27:03.740Z,8.65
2023-10-31T00:29:31.737Z,9.77
2023-10-31T00:31:59.056Z,9.77
2023-10-31T00:34:26.851Z,9.52
2023-10-31T00:36:54.256Z,8.77
2023-10-31T00:39:23.037Z,9.60
2023-10-31T00:41:50.442Z,8.45
2023-10-31T00:44:18.012Z,8.15
2023-10-31T00:46:45.463Z,7.95
2023-10-31T00:49:13.076Z,7.75
2023-10-31T00:51:40.329Z,7.43
2023-10-31T00:54:07.940Z,8.55
2023-10-31T00:56:35.924Z,8.57
2023-10-31T00:59:03.553Z,8.23
2023-10-31T01:01:31.004Z,8.15
2023-10-31T01:03:58.668Z,8.75
2023-10-31T01:06:26.052Z,7.65
2023-10-31T01:08:53.654Z,8.13
2023-10-31T01:11:20.975Z,7.93
2023-10-31T01:13:48.538Z,7.65
2023-10-31T01:16:15.927Z,8.02
2023-10-31T01:18:43.561Z,9.50
2023-10-31T01:21:10.892Z,7.60
2023-10-31T01:23:38.587Z,8.13
2023-10-31T01:26:06.020Z,7.45
2023-10-31T01:28:33.640Z,7.75
2023-10-31T01:31:01.416Z,7.60
2023-10-31T01:33:29.170Z,8.32
2023-10-31T01:35:56.543Z,7.72
2023-10-31T01:38:24.801Z,7.03
2023-10-31T01:40:52.262Z,7.45
2023-10-31T01:43:39.153Z,7.55
2023-10-31T01:46:09.057Z,7.35
2023-10-31T01:48:37.249Z,7.20
2023-10-31T01:51:05.755Z,8.60
2023-10-31T01:53:34.746Z,6.85
2023-10-31T01:56:03.410Z,7.28
2023-10-31T01:58:38.575Z,7.05
2023-10-31T02:01:08.790Z,7.13
2023-10-31T02:03:36.566Z,6.75
2023-10-31T02:06:04.470Z,7.55
2023-10-31T02:08:32.261Z,5.85
2023-10-31T02:10:59.706Z,6.55
2023-10-31T02:13:27.384Z,7.00
2023-10-31T02:15:54.731Z,6.15
2023-10-31T02:18:22.391Z,6.95
2023-10-31T02:20:50.243Z,7.07
2023-10-31T02:23:17.907Z,7.88
2023-10-31T02:25:45.328Z,6.30
2023-10-31T02:28:13.056Z,6.47
2023-10-31T02:30:40.956Z,6.72
2023-10-31T02:33:08.597Z,5.60
2023-10-31T02:35:36.060Z,6.18
2023-10-31T02:38:03.775Z,8.30
2023-10-31T02:40:31.152Z,6.40
2023-10-31T02:42:58.789Z,6.40
2023-10-31T02:45:26.670Z,5.53
2023-10-31T02:47:54.395Z,5.95
2023-10-31T02:50:21.762Z,4.88
2023-10-31T02:52:49.385Z,5.90
2023-10-31T02:55:17.691Z,5.82
2023-10-31T02:57:45.264Z,5.50
2023-10-31T03:00:13.142Z,5.20
2023-10-31T03:02:40.949Z,4.55
2023-10-31T03:05:08.669Z,5.20
2023-10-31T03:07:36.173Z,4.97
2023-10-31T03:10:03.797Z,4.90
2023-10-31T03:12:31.534Z,5.05
2023-10-31T03:14:58.855Z,4.25
2023-10-31T03:17:29.325Z,4.95
2023-10-31T03:19:57.022Z,4.28
2023-10-31T03:22:25.114Z,3.80
2023-10-31T03:24:52.399Z,3.80
2023-10-31T03:27:19.998Z,4.30
2023-10-31T03:29:47.350Z,4.78
2023-10-31T03:32:16.132Z,5.10
2023-10-31T03:34:43.497Z,4.93
2023-10-31T03:37:11.304Z,4.80
2023-10-31T03:39:38.627Z,4.53
2023-10-31T03:42:06.515Z,3.75
2023-10-31T03:44:33.908Z,4.30
2023-10-31T03:47:01.532Z,4.70
2023-10-31T03:49:28.941Z,4.40
2023-10-31T03:51:56.571Z,4.50
2023-10-31T03:54:23.947Z,4.53
2023-10-31T03:56:51.499Z,4.85
2023-10-31T03:59:18.828Z,5.35
2023-10-31T04:01:46.935Z,4.97
2023-10-31T04:04:14.212Z,4.30
2023-10-31T04:06:43.235Z,3.67
2023-10-31T04:09:11.738Z,4.18
2023-10-31T04:11:40.858Z,3.97
2023-10-31T04:14:08.335Z,4.50
2023-10-31T04:16:40.970Z,4.68
2023-10-31T04:19:08.473Z,3.83
2023-10-31T04:21:36.041Z,3.50
2023-10-31T04:24:03.553Z,4.00
2023-10-31T04:26:31.188Z,4.53
2023-10-31T04:28:58.728Z,6.70
2023-10-31T04:31:34.620Z,4.22
2023-10-31T04:34:06.307Z,3.88
2023-10-31T04:36:33.880Z,3.70
2023-10-31T04:39:01.363Z,4.35
2023-10-31T04:41:29.587Z,4.25
2023-10-31T04:43:57.885Z,3.83
2023-10-31T04:46:28.603Z,4.05
2023-10-31T04:48:56.283Z,4.07
2023-10-31T04:51:23.918Z,3.33
2023-10-31T04:53:51.300Z,3.55
2023-10-31T04:56:18.944Z,4.07
2023-10-31T04:58:46.768Z,3.55
2023-10-31T05:01:14.991Z,3.78
2023-10-31T05:03:42.889Z,3.72
2023-10-31T05:06:10.220Z,3.97
2023-10-31T05:08:38.067Z,3.42
2023-10-31T05:11:05.636Z,3.70
2023-10-31T05:13:33.355Z,3.90
2023-10-31T05:16:00.899Z,2.70
2023-10-31T05:18:28.534Z,3.03
2023-10-31T05:20:55.794Z,2.58
2023-10-31T05:23:23.619Z,3.28
2023-10-31T05:25:50.947Z,2.50
2023-10-31T05:28:18.559Z,3.03
2023-10-31T05:30:45.793Z,2.78
2023-10-31T05:33:15.683Z,2.58
2023-10-31T05:35:43.464Z,2.70
2023-10-31T05:38:11.181Z,2.97
2023-10-31T05:40:38.556Z,2.78
2023-10-31T05:43:06.203Z,1.85
2023-10-31T05:45:34.602Z,2.42
2023-10-31T05:48:02.273Z,3.00
2023-10-31T05:50:29.559Z,2.35
2023-10-31T05:52:57.206Z,2.72
2023-10-31T05:55:24.779Z,2.10
2023-10-31T05:57:52.375Z,2.30
2023-10-31T06:00:19.869Z,2.90
2023-10-31T06:02:47.555Z,3.65
2023-10-31T06:05:15.002Z,2.42
2023-10-31T06:07:42.959Z,1.98
2023-10-31T06:10:11.144Z,2.45
2023-10-31T06:12:39.090Z,3.00
2023-10-31T06:15:06.961Z,2.67
2023-10-31T06:17:35.557Z,3.25
2023-10-31T06:20:03.882Z,2.60
2023-10-31T06:22:32.055Z,1.90
2023-10-31T06:24:59.533Z,1.95
2023-10-31T06:27:27.328Z,2.30
2023-10-31T06:30:11.421Z,2.03
2023-10-31T06:32:46.398Z,2.43
2023-10-31T06:35:13.886Z,2.85
2023-10-31T06:37:41.648Z,2.75
2023-10-31T06:40:09.409Z,2.55
2023-10-31T06:42:37.401Z,2.20
2023-10-31T06:45:05.917Z,2.67
2023-10-31T06:47:35.079Z,2.00
2023-10-31T06:50:02.528Z,1.80
2023-10-31T06:52:30.178Z,2.30
2023-10-31T06:54:57.629Z,2.63
2023-10-31T06:57:27.272Z,1.90
2023-10-31T06:59:54.777Z,4.43
2023-10-31T07:02:22.746Z,2.10
2023-10-31T07:04:50.680Z,1.77
2023-10-31T07:07:18.483Z,1.83
2023-10-31T07:09:45.755Z,2.25
2023-10-31T07:12:13.561Z,2.03
2023-10-31T07:14:40.877Z,2.35
2023-10-31T07:17:08.647Z,1.67
2023-10-31T07:19:36.088Z,2.10
2023-10-31T07:22:04.464Z,1.67
2023-10-31T07:24:31.852Z,1.88
2023-10-31T07:26:59.424Z,2.08
2023-10-31T07:29:26.876Z,2.50
2023-10-31T07:31:54.585Z,3.20
2023-10-31T07:34:22.072Z,2.63
2023-10-31T07:36:49.725Z,2.20
2023-10-31T07:39:17.060Z,2.55
2023-10-31T07:41:44.772Z,2.38
2023-10-31T07:44:12.746Z,2.80
2023-10-31T07:46:40.446Z,2.72
2023-10-31T07:49:07.805Z,2.50
2023-10-31T07:51:35.427Z,2.85
2023-10-31T07:54:02.977Z,2.53
2023-10-31T07:56:30.795Z,2.95
2023-10-31T07:58:58.779Z,3.10
2023-10-31T08:01:27.770Z,2.50
2023-10-31T08:03:55.202Z,2.45
2023-10-31T08:06:22.852Z,2.58
2023-10-31T08:08:50.534Z,2.15
2023-10-31T08:11:18.263Z,2.70
2023-10-31T08:13:45.833Z,2.60
2023-10-31T08:16:18.744Z,1.65
2023-10-31T08:18:47.073Z,2.67
2023-10-31T08:21:14.975Z,2.40
2023-10-31T08:23:43.306Z,2.47
2023-10-31T08:26:10.952Z,2.08
2023-10-31T08:28:38.346Z,2.17
2023-10-31T08:31:09.767Z,2.00
2023-10-31T08:33:37.337Z,2.30
2023-10-31T08:36:06.114Z,2.15
2023-10-31T08:38:33.567Z,1.95
2023-10-31T08:41:01.518Z,2.35
2023-10-31T08:43:28.982Z,2.05
2023-10-31T08:45:56.588Z,1.83
2023-10-31T08:48:24.285Z,2.45
2023-10-31T08:50:51.970Z,3.10
2023-10-31T08:53:20.508Z,2.78
2023-10-31T08:55:48.426Z,2.33
2023-10-31T08:58:15.900Z,2.22
2023-10-31T09:00:43.769Z,2.70
2023-10-31T09:03:11.678Z,2.92
2023-10-31T09:05:39.477Z,2.33
2023-10-31T09:08:07.202Z,3.20
2023-10-31T09:10:42.379Z,2.50
2023-10-31T09:13:11.018Z,2.70
2023-10-31T09:15:39.836Z,2.63
2023-10-31T09:18:08.061Z,2.58
2023-10-31T09:20:36.326Z,3.20
2023-10-31T09:23:04.021Z,1.95
2023-10-31T09:25:31.757Z,2.13
2023-10-31T09:28:02.351Z,1.88
2023-10-31T09:30:30.215Z,2.22
2023-10-31T09:32:57.616Z,1.80
2023-10-31T09:35:26.090Z,2.10
2023-10-31T09:37:54.089Z,2.53
2023-10-31T09:40:22.714Z,2.53
2023-10-31T09:42:52.835Z,2.50
2023-10-31T09:45:20.755Z,2.80
2023-10-31T09:47:48.114Z,3.05
2023-10-31T09:50:15.801Z,2.70
2023-10-31T09:52:44.531Z,2.30
2023-10-31T09:55:12.846Z,2.53
2023-10-31T09:57:41.281Z,2.50
2023-10-31T10:00:09.413Z,2.13
2023-10-31T10:02:39.690Z,2.08
2023-10-31T10:05:10.170Z,2.58
2023-10-31T10:07:37.473Z,2.80
2023-10-31T10:10:05.334Z,2.13
2023-10-31T10:12:33.300Z,2.10
2023-10-31T10:15:01.143Z,2.10
2023-10-31T10:17:28.535Z,2.83
2023-10-31T10:20:10.075Z,2.60
2023-10-31T10:22:44.646Z,2.83
2023-10-31T10:25:18.131Z,2.30
2023-10-31T10:27:46.435Z,1.88
2023-10-31T10:30:15.749Z,2.22
2023-10-31T10:32:43.302Z,2.33
2023-10-31T10:35:11.352Z,2.33
2023-10-31T10:37:43.424Z,2.22
2023-10-31T10:40:12.636Z,2.42
2023-10-31T10:42:39.929Z,1.75
2023-10-31T10:45:12.399Z,1.42
2023-10-31T10:47:42.383Z,1.52
2023-10-31T10:50:13.972Z,1.30
2023-10-31T10:53:09.725Z,1.15
2023-10-31T10:55:45.904Z,1.67
2023-10-31T10:58:35.976Z,1.73
2023-10-31T11:01:04.685Z,1.40
2023-10-31T11:03:35.725Z,1.83
2023-10-31T11:06:04.810Z,1.73
2023-10-31T11:08:33.455Z,1.58
2023-10-31T11:11:01.447Z,1.50
2023-10-31T11:13:28.869Z,1.58
2023-10-31T11:16:03.081Z,1.60
2023-10-31T11:18:30.932Z,1.73
2023-10-31T11:20:58.760Z,2.30
2023-10-31T11:23:26.054Z,1.60
2023-10-31T11:25:54.738Z,1.23
2023-10-31T11:28:22.389Z,1.40
2023-10-31T11:30:53.452Z,1.52
2023-10-31T11:33:22.969Z,1.38
2023-10-31T11:36:07.494Z,1.20
2023-10-31T11:38:39.585Z,0.93
2023-10-31T11:41:09.895Z,1.17
2023-10-31T11:43:39.959Z,1.10
2023-10-31T11:46:30.076Z,1.13
2023-10-31T11:48:59.367Z,1.00
2023-10-31T11:51:28.679Z,1.02
2023-10-31T11:53:57.325Z,1.33
2023-10-31T11:56:25.263Z,1.20
2023-10-31T11:59:02.052Z,1.00
2023-10-31T12:01:30.268Z,1.05
2023-10-31T12:03:58.118Z,1.30
2023-10-31T12:06:25.865Z,1.33
2023-10-31T12:08:53.686Z,1.02
2023-10-31T12:11:24.590Z,2.25
2023-10-31T12:14:04.836Z,1.20
2023-10-31T12:16:37.089Z,1.90
2023-10-31T12:19:06.348Z,1.55
2023-10-31T12:21:44.762Z,2.15
2023-10-31T12:24:14.519Z,1.90
2023-10-31T12:26:42.832Z,1.60
2023-10-31T12:29:20.933Z,1.95
2023-10-31T12:31:55.589Z,1.10
2023-10-31T12:34:25.819Z,2.05
2023-10-31T12:36:58.189Z,1.20
2023-10-31T12:39:29.562Z,0.80
2023-10-31T12:42:00.353Z,0.75
2023-10-31T12:44:30.144Z,0.82
2023-10-31T12:46:58.184Z,0.85
2023-10-31T12:49:26.313Z,0.95
2023-10-31T12:52:06.052Z,1.05
2023-10-31T12:54:38.366Z,1.15
2023-10-31T12:57:08.506Z,1.38
2023-10-31T12:59:39.075Z,1.52
2023-10-31T13:02:09.626Z,0.95
2023-10-31T13:04:38.083Z,1.13
2023-10-31T13:07:08.853Z,1.00
2023-10-31T13:09:40.063Z,1.10
2023-10-31T13:12:09.163Z,0.70
2023-10-31T13:14:39.283Z,0.85
2023-10-31T13:17:07.679Z,1.20
2023-10-31T13:19:35.083Z,0.47
2023-10-31T13:22:02.799Z,0.80
2023-10-31T13:24:30.294Z,0.82
2023-10-31T13:26:58.101Z,0.75
2023-10-31T13:29:28.872Z,1.10
2023-10-31T13:31:56.617Z,0.85
2023-10-31T13:34:24.781Z,1.23
2023-10-31T13:36:55.039Z,0.98
2023-10-31T13:39:23.250Z,1.40
2023-10-31T13:41:50.922Z,1.55
2023-10-31T13:44:18.750Z,1.17
2023-10-31T13:46:46.101Z,1.50
2023-10-31T13:49:13.973Z,2.38
2023-10-31T13:51:41.354Z,5.07
2023-10-31T13:54:09.012Z,1.35
2023-10-31T13:56:36.789Z,2.47
2023-10-31T13:59:04.584Z,1.70
2023-10-31T14:01:32.012Z,3.13
2023-10-31T14:04:00.209Z,1.10
2023-10-31T14:06:31.560Z,2.47
2023-10-31T14:09:00.633Z,1.85
2023-10-31T14:11:28.303Z,0.57
2023-10-31T14:13:55.890Z,0.80
2023-10-31T14:16:23.387Z,1.08
2023-10-31T14:18:51.432Z,0.70
2023-10-31T14:21:18.952Z,2.45
2023-10-31T14:23:56.086Z,1.70
2023-10-31T14:26:28.987Z,3.67
2023-10-31T14:28:57.002Z,6.22
2023-10-31T14:31:24.483Z,3.13
2023-10-31T14:33:52.080Z,0.88
2023-10-31T14:36:19.442Z,2.03
2023-10-31T14:38:47.376Z,3.63
2023-10-31T14:41:15.753Z,15.55
2023-10-31T14:43:44.187Z,71.43
2023-10-31T14:46:11.689Z,34.10
2023-10-31T14:48:39.401Z,11.65
2023-10-31T14:51:06.874Z,7.75
2023-10-31T14:53:35.837Z,3.70
2023-10-31T14:56:04.455Z,2.47
2023-10-31T14:58:32.100Z,1.40
2023-10-31T15:00:59.385Z,1.52
2023-10-31T15:03:28.324Z,2.17
2023-10-31T15:05:55.908Z,2.58
2023-10-31T15:08:23.620Z,2.40
2023-10-31T15:10:52.611Z,1.73
2023-10-31T15:13:21.535Z,1.30
2023-10-31T15:15:48.985Z,1.25
2023-10-31T15:18:18.687Z,1.77
2023-10-31T15:20:46.315Z,1.83
2023-10-31T15:23:16.000Z,2.17
2023-10-31T15:25:43.500Z,3.10
2023-10-31T15:28:11.745Z,2.75
2023-10-31T15:30:39.124Z,2.67
2023-10-31T15:33:06.912Z,3.80
2023-10-31T15:35:38.960Z,4.82
2023-10-31T15:38:06.754Z,5.45
2023-10-31T15:40:34.269Z,5.82
2023-10-31T15:43:02.269Z,5.35
2023-10-31T15:45:29.696Z,4.72
2023-10-31T15:47:57.410Z,5.30
2023-10-31T15:50:24.888Z,4.22
2023-10-31T15:52:53.075Z,3.55
2023-10-31T15:55:20.476Z,4.15
2023-10-31T15:57:48.028Z,3.97
2023-10-31T16:00:15.818Z,3.60
2023-10-31T16:02:44.427Z,3.63
2023-10-31T16:05:11.820Z,3.40
2023-10-31T16:07:40.205Z,3.10
2023-10-31T16:10:08.420Z,3.60
2023-10-31T16:12:36.522Z,2.65
2023-10-31T16:15:04.550Z,3.40
2023-10-31T16:17:36.761Z,4.03
2023-10-31T16:20:04.928Z,3.23
2023-10-31T16:22:32.795Z,3.33
2023-10-31T16:25:00.528Z,4.03
2023-10-31T16:27:32.905Z,3.60
2023-10-31T16:30:00.305Z,3.83
2023-10-31T16:32:28.026Z,3.13
2023-10-31T16:34:56.516Z,3.30
2023-10-31T16:37:25.504Z,3.35
2023-10-31T16:39:52.971Z,3.33
2023-10-31T16:42:21.942Z,2.90
2023-10-31T16:44:49.474Z,3.45
2023-10-31T16:47:17.218Z,3.20
2023-10-31T16:49:44.749Z,3.83
2023-10-31T16:52:12.491Z,3.65
2023-10-31T16:54:39.858Z,3.88
2023-10-31T16:57:07.802Z,4.60
2023-10-31T16:59:35.303Z,4.70
2023-10-31T17:02:04.217Z,5.20
2023-10-31T17:04:36.030Z,5.65
2023-10-31T17:07:04.151Z,4.93
2023-10-31T17:09:31.718Z,4.32
2023-10-31T17:11:59.510Z,4.38
2023-10-31T17:14:27.079Z,3.80
2023-10-31T17:16:58.565Z,5.53
2023-10-31T17:19:25.883Z,4.60
2023-10-31T17:21:53.710Z,11.23
2023-10-31T17:24:22.071Z,5.80
2023-10-31T17:26:49.687Z,5.50
2023-10-31T17:29:17.277Z,7.65
2023-10-31T17:31:45.044Z,17.15
2023-10-31T17:34:12.614Z,25.17
2023-10-31T17:36:41.141Z,17.88
2023-10-31T17:39:10.094Z,42.25
2023-10-31T17:41:37.955Z,9.68
2023-10-31T17:44:05.653Z,10.05
2023-10-31T17:46:33.434Z,7.00
2023-10-31T17:49:00.843Z,8.40
2023-10-31T17:51:28.803Z,11.48
2023-10-31T17:53:59.579Z,11.88
2023-10-31T17:56:27.407Z,15.02
2023-10-31T17:58:55.123Z,16.42
2023-10-31T18:01:22.885Z,10.68
2023-10-31T18:03:50.619Z,15.90
2023-10-31T18:06:18.348Z,20.95
2023-10-31T18:08:45.773Z,20.45
2023-10-31T18:11:13.418Z,20.50
2023-10-31T18:13:43.995Z,19.13
2023-10-31T18:16:12.789Z,12.60
2023-10-31T18:18:40.197Z,10.27
2023-10-31T18:21:07.901Z,12.32
2023-10-31T18:23:39.484Z,14.73
2023-10-31T18:26:07.460Z,8.90
2023-10-31T18:28:35.139Z,8.13
2023-10-31T18:31:03.552Z,6.78
2023-10-31T18:33:32.540Z,7.75
2023-10-31T18:36:00.414Z,6.32
2023-10-31T18:38:28.035Z,5.57
2023-10-31T18:40:55.815Z,5.07
2023-10-31T18:43:23.357Z,5.90
2023-10-31T18:45:50.937Z,5.95
2023-10-31T18:48:18.402Z,5.65
2023-10-31T18:50:47.566Z,5.18
2023-10-31T18:53:16.527Z,4.93
2023-10-31T18:55:44.293Z,4.82
2023-10-31T18:58:11.734Z,4.90
2023-10-31T19:00:39.354Z,4.85
2023-10-31T19:03:06.770Z,4.68
2023-10-31T19:05:34.818Z,4.65
2023-10-31T19:08:04.067Z,3.58
2023-10-31T19:10:32.099Z,3.53
2023-10-31T19:12:59.785Z,3.63
2023-10-31T19:15:29.761Z,3.42
2023-10-31T19:17:57.193Z,3.55
2023-10-31T19:20:24.887Z,3.65
2023-10-31T19:22:52.450Z,4.00
2023-10-31T19:25:20.158Z,3.13
2023-10-31T19:27:47.396Z,3.50
2023-10-31T19:30:16.464Z,4.30
2023-10-31T19:32:44.559Z,4.50
2023-10-31T19:35:14.567Z,3.20
2023-10-31T19:37:45.348Z,2.80
2023-10-31T19:40:17.219Z,3.47
2023-10-31T19:42:44.628Z,4.45
2023-10-31T19:45:12.415Z,3.65
2023-10-31T19:47:39.877Z,3.63
2023-10-31T19:50:09.510Z,3.28
2023-10-31T19:52:37.132Z,3.45
2023-10-31T19:55:06.306Z,3.25
2023-10-31T19:57:33.680Z,2.65
2023-10-31T20:00:01.578Z,3.30
2023-10-31T20:02:29.845Z,2.60
2023-10-31T20:04:57.794Z,3.17
2023-10-31T20:07:25.111Z,2.15
2023-10-31T20:09:52.694Z,2.75
2023-10-31T20:12:20.001Z,2.10
2023-10-31T20:15:00.107Z,2.25
2023-10-31T20:17:33.636Z,1.92
2023-10-31T20:20:01.538Z,2.08
2023-10-31T20:22:31.807Z,2.20
2023-10-31T20:24:59.500Z,2.20
2023-10-31T20:27:27.196Z,1.60
2023-10-31T20:29:54.959Z,1.85
2023-10-31T20:32:22.704Z,1.77
2023-10-31T20:34:50.630Z,2.00
2023-10-31T20:37:19.277Z,2.38
2023-10-31T20:39:47.135Z,1.90
2023-10-31T20:42:14.575Z,2.75
2023-10-31T20:44:43.787Z,1.85
2023-10-31T20:47:11.315Z,2.30
2023-10-31T20:49:43.893Z,2.50
2023-10-31T20:52:11.689Z,2.35
2023-10-31T20:54:39.344Z,1.90
2023-10-31T20:57:06.630Z,2.17
2023-10-31T20:59:37.553Z,2.45
2023-10-31T21:02:05.392Z,2.25
2023-10-31T21:04:33.431Z,2.25
2023-10-31T21:07:00.919Z,2.28
2023-10-31T21:09:28.692Z,2.45
2023-10-31T21:11:56.610Z,2.33
2023-10-31T21:14:24.329Z,2.60
2023-10-31T21:16:51.693Z,2.38
2023-10-31T21:19:28.134Z,2.10
2023-10-31T21:22:05.198Z,1.75
2023-10-31T21:24:33.329Z,2.47
2023-10-31T21:27:00.867Z,2.28
2023-10-31T21:29:28.588Z,2.58
2023-10-31T21:31:57.709Z,2.03
2023-10-31T21:34:25.664Z,2.55
2023-10-31T21:36:53.029Z,1.70
2023-10-31T21:39:22.670Z,2.25
2023-10-31T21:41:50.169Z,1.80
2023-10-31T21:44:17.838Z,1.70
2023-10-31T21:46:46.124Z,2.65
2023-10-31T21:49:13.852Z,2.30
2023-10-31T21:51:41.321Z,2.33
2023-10-31T21:54:09.619Z,2.60
2023-10-31T21:56:37.258Z,1.88
2023-10-31T21:59:04.907Z,2.53
2023-10-31T22:01:32.573Z,2.28
2023-10-31T22:04:00.827Z,2.28
2023-10-31T22:06:28.307Z,1.50
2023-10-31T22:08:57.116Z,2.22
2023-10-31T22:11:25.154Z,1.85
2023-10-31T22:13:54.797Z,1.65
2023-10-31T22:16:22.452Z,1.98
2023-10-31T22:18:52.535Z,1.65
2023-10-31T22:21:20.038Z,1.23
2023-10-31T22:23:52.541Z,1.60
2023-10-31T22:26:21.767Z,1.23
2023-10-31T22:28:49.471Z,1.92
2023-10-31T22:31:16.827Z,1.77
2023-10-31T22:33:46.346Z,1.23
2023-10-31T22:36:14.041Z,1.15
2023-10-31T22:38:41.728Z,1.58
2023-10-31T22:41:10.124Z,1.77
2023-10-31T22:43:37.823Z,1.60
2023-10-31T22:46:09.777Z,1.17
2023-10-31T22:48:37.518Z,1.70
2023-10-31T22:51:06.090Z,1.20
2023-10-31T22:53:34.120Z,1.80
2023-10-31T22:56:01.537Z,2.13
2023-10-31T22:58:29.887Z,2.00
2023-10-31T23:00:57.170Z,1.52
2023-10-31T23:03:24.911Z,1.52
2023-10-31T23:05:52.486Z,2.08
2023-10-31T23:08:21.498Z,1.80
2023-10-31T23:10:49.156Z,1.70
2023-10-31T23:13:16.698Z,2.08
2023-10-31T23:15:44.153Z,1.92
2023-10-31T23:18:12.698Z,1.80
2023-10-31T23:20:40.058Z,1.70
2023-10-31T23:23:08.031Z,2.35
2023-10-31T23:25:35.327Z,2.35
2023-10-31T23:28:03.021Z,1.77
2023-10-31T23:30:30.382Z,2.40
2023-10-31T23:32:58.053Z,2.42
2023-10-31T23:35:25.556Z,2.25
2023-10-31T23:37:53.456Z,2.08
2023-10-31T23:40:20.739Z,2.50
2023-10-31T23:42:53.445Z,3.05
2023-10-31T23:45:22.058Z,3.25
2023-10-31T23:47:49.776Z,3.20
2023-10-31T23:50:17.316Z,3.40
2023-10-31T23:52:45.022Z,2.78
2023-10-31T23:55:12.970Z,4.00
2023-10-31T23:57:40.649Z,3.08
